*** (BERICHT 30/01/2018): De windmeter staat (voorlopig) opgesteld op zo'n 4-tal meter & in een bosrijke omgeving waardoor de windwaarnemingen afwijkend kunnen zijn. (normaal 10 meter)***
Het weer levert geen direct gevaar op.    Er zijn geen waarschuwingen afgegeven.

metar rapporten vliegvelden

   
EBAW - Antwerp
gewijzigd: 26-05-2018 15:20
licht bewolkt  
licht bewolkt  
   wind: oosten 16,7 km/h
wind: oosten 16,7 km/h
temperatuur: 28°C
gevoelstemperatuur: 28°C
dauwpunt: 15°C
vochtigheid: 45%
barometer: 1018 hPa
bewolking: licht bewolkt
zicht: meer dan 10 km
bewolking: licht bewolkt 4500 ft
EBAW 261320Z 10009KT 060V130 9999 FEW045 28/15 Q1018 NOSIG
EBLG - Li├Ęge
gewijzigd: 26-05-2018 15:20
helder  
helder  
   wind: zzo 9,3 km/h
wind: zzo 9,3 km/h
temperatuur: 29°C
dauwpunt: 13°C
vochtigheid: 37%
barometer: 1019 hPa
zicht: meer dan 10 km
bewolking: helder
EBLG 261320Z 16005KT 050V220 CAVOK 29/13 Q1019 NOSIG
EBCV - Mons/Bergen
gewijzigd: 26-05-2018 15:25
licht bewolkt  
licht bewolkt  
   wind: oosten 16,7 km/h
wind: oosten 16,7 km/h
temperatuur: 28°C
gevoelstemperatuur: 28°C
dauwpunt: 16°C
vochtigheid: 48%
barometer: 1018 hPa
bewolking: licht bewolkt
zicht: meer dan 10 km
bewolking: licht bewolkt 11000 ft
EBCV 261325Z AUTO 09009KT 9999 FEW110/// 28/16 Q1018 BLU
EHBK - Maastricht
gewijzigd: 26-05-2018 15:25
gedeeltelijk bewolkt  
gedeeltelijk bewolkt  
   wind: ono 18,5 km/h
wind: ono 18,5 km/h
temperatuur: 27°C
gevoelstemperatuur: 27°C
dauwpunt: 16°C
vochtigheid: 51%
barometer: 1019 hPa
bewolking: gedeeltelijk bewolkt
zicht: meer dan 10 km
bewolking: gedeeltelijk bewolkt
EHBK 261325Z AUTO 06010KT 020V100 9999 NSC 27/16 Q1019 NOSIG
ELLX - Luxemburg
gewijzigd: 26-05-2018 15:20
licht bewolkt  
licht bewolkt  
   wind: zzo 13 km/h
wind: zzo 13 km/h
temperatuur: 27°C
gevoelstemperatuur: 27°C
dauwpunt: 14°C
vochtigheid: 45%
barometer: 1020 hPa
bewolking: licht bewolkt
zicht: meer dan 10 km
bewolking: licht bewolkt 4800 ft
ELLX 261320Z 15007KT 070V210 9999 FEW048 27/14 Q1020 NOSIG
EBOS - Oostende
gewijzigd: 26-05-2018 15:20
gedeeltelijk bewolkt  
gedeeltelijk bewolkt  
   wind: nno 20,4 km/h
wind: nno 20,4 km/h
temperatuur: 25°C
dauwpunt: 17°C
vochtigheid: 61%
barometer: 1018 hPa
bewolking: gedeeltelijk bewolkt
zicht: 9 km
bewolking: gedeeltelijk bewolkt
EBOS 261320Z 03011KT 9000 NSC 25/17 Q1018 NOSIG

script ontwikkeld door  Saratoga-weather.org aangepast voor de template door  Weerstation Leuven